Terminal Aerodrome Forecast
Issued by NWS

Home | Current Version | Previous Version | Text Only | Print | Product List | Glossary On
Versions: 1 2 3 4 5 6 7 8 9 10 11 12 13 14
000
FTUS45 KVEF 291126
TAFBIH
TAF
KBIH 291126Z 2912/3012 VRB06KT P6SM SKC
     FM291900 16010G18KT P6SM SCT250
     FM292300 27010KT P6SM VCSH SCT100 BKN250
     FM300400 31008KT P6SM BKN250=

USA.gov is the U.S. government's official web portal to all federal, state and local government web resources and services.